sensor_id;sensor_type;location;lat;lon;timestamp;P1;durP1;ratioP1;P2;durP2;ratioP2
47635;SDS011;33364;50.766;15.338;2023-11-22T00:01:22;12.52;;;6.78;;
47635;SDS011;33364;50.766;15.338;2023-11-22T00:03:48;11.75;;;7.47;;
47635;SDS011;33364;50.766;15.338;2023-11-22T00:06:15;11.93;;;7.22;;
47635;SDS011;33364;50.766;15.338;2023-11-22T00:08:41;13.07;;;7.30;;
47635;SDS011;33364;50.766;15.338;2023-11-22T00:11:07;12.30;;;7.68;;
47635;SDS011;33364;50.766;15.338;2023-11-22T00:13:33;18.95;;;8.95;;
47635;SDS011;33364;50.766;15.338;2023-11-22T00:15:59;15.50;;;8.32;;
47635;SDS011;33364;50.766;15.338;2023-11-22T00:18:24;13.60;;;8.27;;
47635;SDS011;33364;50.766;15.338;2023-11-22T00:20:51;12.63;;;7.72;;
47635;SDS011;33364;50.766;15.338;2023-11-22T00:23:17;12.93;;;7.50;;
47635;SDS011;33364;50.766;15.338;2023-11-22T00:25:43;14.38;;;8.63;;
47635;SDS011;33364;50.766;15.338;2023-11-22T00:28:08;13.88;;;8.25;;
47635;SDS011;33364;50.766;15.338;2023-11-22T00:30:34;13.13;;;7.85;;
47635;SDS011;33364;50.766;15.338;2023-11-22T00:33:00;12.60;;;7.00;;
47635;SDS011;33364;50.766;15.338;2023-11-22T00:35:26;16.33;;;8.68;;
47635;SDS011;33364;50.766;15.338;2023-11-22T00:37:52;13.40;;;8.52;;
47635;SDS011;33364;50.766;15.338;2023-11-22T00:40:18;16.20;;;9.07;;
47635;SDS011;33364;50.766;15.338;2023-11-22T00:42:43;15.13;;;9.20;;
47635;SDS011;33364;50.766;15.338;2023-11-22T00:45:10;13.63;;;8.57;;
47635;SDS011;33364;50.766;15.338;2023-11-22T00:47:36;15.35;;;9.70;;
47635;SDS011;33364;50.766;15.338;2023-11-22T00:50:02;12.27;;;7.72;;
47635;SDS011;33364;50.766;15.338;2023-11-22T00:52:30;15.13;;;9.85;;
47635;SDS011;33364;50.766;15.338;2023-11-22T00:54:56;15.02;;;8.15;;
47635;SDS011;33364;50.766;15.338;2023-11-22T00:57:22;13.60;;;8.20;;
47635;SDS011;33364;50.766;15.338;2023-11-22T00:59:49;14.52;;;7.85;;
47635;SDS011;33364;50.766;15.338;2023-11-22T01:02:15;13.13;;;7.68;;
47635;SDS011;33364;50.766;15.338;2023-11-22T01:04:41;17.88;;;9.15;;
47635;SDS011;33364;50.766;15.338;2023-11-22T01:07:07;13.20;;;8.27;;
47635;SDS011;33364;50.766;15.338;2023-11-22T01:09:35;13.15;;;7.93;;
47635;SDS011;33364;50.766;15.338;2023-11-22T01:12:01;13.82;;;7.75;;
47635;SDS011;33364;50.766;15.338;2023-11-22T01:14:27;13.18;;;7.82;;
47635;SDS011;33364;50.766;15.338;2023-11-22T01:16:53;14.43;;;8.23;;
47635;SDS011;33364;50.766;15.338;2023-11-22T01:19:20;15.25;;;9.25;;
47635;SDS011;33364;50.766;15.338;2023-11-22T01:21:46;13.73;;;7.97;;
47635;SDS011;33364;50.766;15.338;2023-11-22T01:24:12;14.65;;;8.55;;
47635;SDS011;33364;50.766;15.338;2023-11-22T01:26:37;15.95;;;8.75;;
47635;SDS011;33364;50.766;15.338;2023-11-22T01:29:04;15.52;;;9.93;;
47635;SDS011;33364;50.766;15.338;2023-11-22T01:31:30;13.52;;;9.00;;
47635;SDS011;33364;50.766;15.338;2023-11-22T01:34:00;15.93;;;9.20;;
47635;SDS011;33364;50.766;15.338;2023-11-22T01:36:26;16.80;;;10.45;;
47635;SDS011;33364;50.766;15.338;2023-11-22T01:38:53;13.55;;;7.72;;
47635;SDS011;33364;50.766;15.338;2023-11-22T01:41:19;18.42;;;9.85;;
47635;SDS011;33364;50.766;15.338;2023-11-22T01:43:45;16.15;;;9.05;;
47635;SDS011;33364;50.766;15.338;2023-11-22T01:46:17;19.23;;;11.35;;
47635;SDS011;33364;50.766;15.338;2023-11-22T01:48:48;17.55;;;9.95;;
47635;SDS011;33364;50.766;15.338;2023-11-22T01:51:14;17.80;;;10.48;;
47635;SDS011;33364;50.766;15.338;2023-11-22T01:53:40;16.23;;;9.38;;
47635;SDS011;33364;50.766;15.338;2023-11-22T01:56:07;16.83;;;9.75;;
47635;SDS011;33364;50.766;15.338;2023-11-22T01:58:35;15.13;;;8.57;;
47635;SDS011;33364;50.766;15.338;2023-11-22T02:01:00;15.32;;;8.75;;
47635;SDS011;33364;50.766;15.338;2023-11-22T02:03:27;15.00;;;8.45;;
47635;SDS011;33364;50.766;15.338;2023-11-22T02:05:54;16.13;;;8.18;;
47635;SDS011;33364;50.766;15.338;2023-11-22T02:08:20;17.52;;;9.02;;
47635;SDS011;33364;50.766;15.338;2023-11-22T02:10:46;15.95;;;8.35;;
47635;SDS011;33364;50.766;15.338;2023-11-22T02:13:22;15.60;;;9.48;;
47635;SDS011;33364;50.766;15.338;2023-11-22T02:15:48;15.10;;;8.40;;
47635;SDS011;33364;50.766;15.338;2023-11-22T02:18:14;13.38;;;7.90;;
47635;SDS011;33364;50.766;15.338;2023-11-22T02:20:39;14.40;;;8.43;;
47635;SDS011;33364;50.766;15.338;2023-11-22T02:23:10;17.42;;;8.75;;
47635;SDS011;33364;50.766;15.338;2023-11-22T02:25:36;13.00;;;8.30;;
47635;SDS011;33364;50.766;15.338;2023-11-22T02:28:03;15.57;;;7.97;;
47635;SDS011;33364;50.766;15.338;2023-11-22T02:30:30;12.85;;;7.47;;
47635;SDS011;33364;50.766;15.338;2023-11-22T02:32:57;13.52;;;7.68;;
47635;SDS011;33364;50.766;15.338;2023-11-22T02:35:22;12.88;;;7.25;;
47635;SDS011;33364;50.766;15.338;2023-11-22T02:37:49;12.70;;;7.38;;
47635;SDS011;33364;50.766;15.338;2023-11-22T02:42:48;14.82;;;8.32;;
47635;SDS011;33364;50.766;15.338;2023-11-22T02:45:18;14.80;;;8.57;;
47635;SDS011;33364;50.766;15.338;2023-11-22T02:48:04;14.77;;;9.13;;
47635;SDS011;33364;50.766;15.338;2023-11-22T02:50:34;14.48;;;8.73;;
47635;SDS011;33364;50.766;15.338;2023-11-22T02:53:02;19.90;;;9.98;;
47635;SDS011;33364;50.766;15.338;2023-11-22T02:55:29;17.45;;;8.77;;
47635;SDS011;33364;50.766;15.338;2023-11-22T02:57:55;17.15;;;9.70;;
47635;SDS011;33364;50.766;15.338;2023-11-22T03:00:21;16.30;;;10.13;;
47635;SDS011;33364;50.766;15.338;2023-11-22T03:02:47;17.27;;;9.18;;
47635;SDS011;33364;50.766;15.338;2023-11-22T03:05:22;14.77;;;9.02;;
47635;SDS011;33364;50.766;15.338;2023-11-22T03:07:48;13.65;;;8.55;;
47635;SDS011;33364;50.766;15.338;2023-11-22T03:10:16;14.32;;;7.88;;
47635;SDS011;33364;50.766;15.338;2023-11-22T03:12:43;13.82;;;7.95;;
47635;SDS011;33364;50.766;15.338;2023-11-22T03:15:09;15.02;;;8.75;;
47635;SDS011;33364;50.766;15.338;2023-11-22T03:17:36;13.48;;;6.88;;
47635;SDS011;33364;50.766;15.338;2023-11-22T03:20:04;13.73;;;7.65;;
47635;SDS011;33364;50.766;15.338;2023-11-22T03:22:34;14.18;;;8.15;;
47635;SDS011;33364;50.766;15.338;2023-11-22T03:25:03;11.52;;;6.75;;
47635;SDS011;33364;50.766;15.338;2023-11-22T03:27:30;17.90;;;9.48;;
47635;SDS011;33364;50.766;15.338;2023-11-22T03:29:56;15.05;;;8.55;;
47635;SDS011;33364;50.766;15.338;2023-11-22T03:32:22;15.35;;;8.25;;
47635;SDS011;33364;50.766;15.338;2023-11-22T03:34:47;16.45;;;8.57;;
47635;SDS011;33364;50.766;15.338;2023-11-22T03:37:13;16.35;;;10.32;;
47635;SDS011;33364;50.766;15.338;2023-11-22T03:39:39;17.65;;;9.20;;
47635;SDS011;33364;50.766;15.338;2023-11-22T03:42:05;14.57;;;8.55;;
47635;SDS011;33364;50.766;15.338;2023-11-22T03:44:31;15.77;;;9.20;;
47635;SDS011;33364;50.766;15.338;2023-11-22T03:46:57;16.77;;;9.60;;
47635;SDS011;33364;50.766;15.338;2023-11-22T03:49:23;16.55;;;9.18;;
47635;SDS011;33364;50.766;15.338;2023-11-22T03:51:49;17.13;;;9.48;;
47635;SDS011;33364;50.766;15.338;2023-11-22T03:54:14;19.02;;;10.52;;
47635;SDS011;33364;50.766;15.338;2023-11-22T03:56:40;19.33;;;10.38;;
47635;SDS011;33364;50.766;15.338;2023-11-22T03:59:06;17.42;;;10.27;;
47635;SDS011;33364;50.766;15.338;2023-11-22T04:01:32;17.60;;;9.63;;
47635;SDS011;33364;50.766;15.338;2023-11-22T04:03:57;20.88;;;10.52;;
47635;SDS011;33364;50.766;15.338;2023-11-22T04:06:23;16.30;;;8.90;;
47635;SDS011;33364;50.766;15.338;2023-11-22T04:08:49;16.80;;;8.68;;
47635;SDS011;33364;50.766;15.338;2023-11-22T04:11:15;21.48;;;12.90;;
47635;SDS011;33364;50.766;15.338;2023-11-22T04:13:43;19.60;;;10.40;;
47635;SDS011;33364;50.766;15.338;2023-11-22T04:16:09;18.00;;;9.77;;
47635;SDS011;33364;50.766;15.338;2023-11-22T04:18:37;14.73;;;9.00;;
47635;SDS011;33364;50.766;15.338;2023-11-22T04:21:07;13.30;;;8.30;;
47635;SDS011;33364;50.766;15.338;2023-11-22T04:23:34;15.05;;;8.68;;
47635;SDS011;33364;50.766;15.338;2023-11-22T04:26:00;12.85;;;7.50;;
47635;SDS011;33364;50.766;15.338;2023-11-22T04:28:27;17.85;;;9.65;;
47635;SDS011;33364;50.766;15.338;2023-11-22T04:30:55;14.32;;;8.48;;
47635;SDS011;33364;50.766;15.338;2023-11-22T04:33:22;14.18;;;8.32;;
47635;SDS011;33364;50.766;15.338;2023-11-22T04:35:48;16.50;;;9.70;;
47635;SDS011;33364;50.766;15.338;2023-11-22T04:38:14;17.60;;;9.02;;
47635;SDS011;33364;50.766;15.338;2023-11-22T04:40:40;15.70;;;8.48;;
47635;SDS011;33364;50.766;15.338;2023-11-22T04:43:07;15.75;;;9.38;;
47635;SDS011;33364;50.766;15.338;2023-11-22T04:45:34;18.92;;;8.70;;
47635;SDS011;33364;50.766;15.338;2023-11-22T04:48:00;21.15;;;9.63;;
47635;SDS011;33364;50.766;15.338;2023-11-22T04:50:26;17.33;;;9.25;;
47635;SDS011;33364;50.766;15.338;2023-11-22T04:52:52;17.70;;;9.98;;
47635;SDS011;33364;50.766;15.338;2023-11-22T04:55:18;17.02;;;9.85;;
47635;SDS011;33364;50.766;15.338;2023-11-22T04:57:45;19.13;;;10.73;;
47635;SDS011;33364;50.766;15.338;2023-11-22T05:00:12;18.75;;;10.15;;
47635;SDS011;33364;50.766;15.338;2023-11-22T05:02:38;22.73;;;11.32;;
47635;SDS011;33364;50.766;15.338;2023-11-22T05:05:06;19.92;;;11.18;;
47635;SDS011;33364;50.766;15.338;2023-11-22T05:07:32;19.63;;;11.55;;
47635;SDS011;33364;50.766;15.338;2023-11-22T05:09:58;24.33;;;13.82;;
47635;SDS011;33364;50.766;15.338;2023-11-22T05:12:23;22.52;;;12.23;;
47635;SDS011;33364;50.766;15.338;2023-11-22T05:14:49;25.77;;;13.48;;
47635;SDS011;33364;50.766;15.338;2023-11-22T05:17:15;26.95;;;13.68;;
47635;SDS011;33364;50.766;15.338;2023-11-22T05:19:41;23.83;;;12.98;;
47635;SDS011;33364;50.766;15.338;2023-11-22T05:22:07;28.30;;;14.98;;
47635;SDS011;33364;50.766;15.338;2023-11-22T05:24:33;29.08;;;14.43;;
47635;SDS011;33364;50.766;15.338;2023-11-22T05:27:00;27.80;;;13.10;;
47635;SDS011;33364;50.766;15.338;2023-11-22T05:29:26;26.88;;;15.90;;
47635;SDS011;33364;50.766;15.338;2023-11-22T05:31:52;26.17;;;14.43;;
47635;SDS011;33364;50.766;15.338;2023-11-22T05:34:18;28.48;;;14.32;;
47635;SDS011;33364;50.766;15.338;2023-11-22T05:36:44;28.48;;;15.45;;
47635;SDS011;33364;50.766;15.338;2023-11-22T05:39:10;26.50;;;13.60;;
47635;SDS011;33364;50.766;15.338;2023-11-22T05:41:37;26.02;;;13.13;;
47635;SDS011;33364;50.766;15.338;2023-11-22T05:44:03;28.15;;;15.23;;
47635;SDS011;33364;50.766;15.338;2023-11-22T05:46:29;32.80;;;16.77;;
47635;SDS011;33364;50.766;15.338;2023-11-22T05:48:55;28.25;;;15.38;;
47635;SDS011;33364;50.766;15.338;2023-11-22T05:51:21;37.05;;;22.48;;
47635;SDS011;33364;50.766;15.338;2023-11-22T05:53:47;32.80;;;18.27;;
47635;SDS011;33364;50.766;15.338;2023-11-22T05:56:13;31.30;;;16.15;;
47635;SDS011;33364;50.766;15.338;2023-11-22T05:58:40;32.83;;;16.05;;
47635;SDS011;33364;50.766;15.338;2023-11-22T06:01:06;32.35;;;17.10;;
47635;SDS011;33364;50.766;15.338;2023-11-22T06:03:34;29.02;;;15.27;;
47635;SDS011;33364;50.766;15.338;2023-11-22T06:06:01;34.78;;;16.60;;
47635;SDS011;33364;50.766;15.338;2023-11-22T06:08:28;38.50;;;16.02;;
47635;SDS011;33364;50.766;15.338;2023-11-22T06:10:54;37.38;;;16.25;;
47635;SDS011;33364;50.766;15.338;2023-11-22T06:13:22;34.53;;;18.77;;
47635;SDS011;33364;50.766;15.338;2023-11-22T06:15:48;30.70;;;15.75;;
47635;SDS011;33364;50.766;15.338;2023-11-22T06:18:14;32.55;;;15.82;;
47635;SDS011;33364;50.766;15.338;2023-11-22T06:20:40;32.85;;;15.45;;
47635;SDS011;33364;50.766;15.338;2023-11-22T06:23:07;34.78;;;15.45;;
47635;SDS011;33364;50.766;15.338;2023-11-22T06:25:32;38.15;;;21.23;;
47635;SDS011;33364;50.766;15.338;2023-11-22T06:27:58;31.13;;;16.45;;
47635;SDS011;33364;50.766;15.338;2023-11-22T06:30:24;61.40;;;26.77;;
47635;SDS011;33364;50.766;15.338;2023-11-22T06:32:51;37.95;;;18.85;;
47635;SDS011;33364;50.766;15.338;2023-11-22T06:35:16;30.75;;;15.70;;
47635;SDS011;33364;50.766;15.338;2023-11-22T06:37:43;40.60;;;19.75;;
47635;SDS011;33364;50.766;15.338;2023-11-22T06:40:10;43.20;;;23.63;;
47635;SDS011;33364;50.766;15.338;2023-11-22T06:42:40;36.97;;;17.30;;
47635;SDS011;33364;50.766;15.338;2023-11-22T06:45:07;30.85;;;15.95;;
47635;SDS011;33364;50.766;15.338;2023-11-22T06:47:38;30.98;;;16.15;;
47635;SDS011;33364;50.766;15.338;2023-11-22T06:50:04;35.40;;;16.77;;
47635;SDS011;33364;50.766;15.338;2023-11-22T06:52:35;30.52;;;15.57;;
47635;SDS011;33364;50.766;15.338;2023-11-22T06:55:01;32.58;;;16.42;;
47635;SDS011;33364;50.766;15.338;2023-11-22T06:57:28;32.45;;;16.60;;
47635;SDS011;33364;50.766;15.338;2023-11-22T06:59:57;31.95;;;15.35;;
47635;SDS011;33364;50.766;15.338;2023-11-22T07:02:23;30.27;;;15.98;;
47635;SDS011;33364;50.766;15.338;2023-11-22T07:04:49;29.75;;;16.80;;
47635;SDS011;33364;50.766;15.338;2023-11-22T07:07:15;33.38;;;15.70;;
47635;SDS011;33364;50.766;15.338;2023-11-22T07:09:44;31.20;;;15.27;;
47635;SDS011;33364;50.766;15.338;2023-11-22T07:12:10;30.20;;;15.38;;
47635;SDS011;33364;50.766;15.338;2023-11-22T07:14:36;26.33;;;13.02;;
47635;SDS011;33364;50.766;15.338;2023-11-22T07:17:02;28.55;;;13.15;;
47635;SDS011;33364;50.766;15.338;2023-11-22T07:19:29;32.28;;;15.55;;
47635;SDS011;33364;50.766;15.338;2023-11-22T07:21:55;25.48;;;13.18;;
47635;SDS011;33364;50.766;15.338;2023-11-22T07:24:20;28.65;;;15.50;;
47635;SDS011;33364;50.766;15.338;2023-11-22T07:26:46;30.40;;;14.40;;
47635;SDS011;33364;50.766;15.338;2023-11-22T07:29:12;26.98;;;13.98;;
47635;SDS011;33364;50.766;15.338;2023-11-22T07:31:38;27.33;;;13.73;;
47635;SDS011;33364;50.766;15.338;2023-11-22T07:34:07;29.70;;;14.52;;
47635;SDS011;33364;50.766;15.338;2023-11-22T07:36:36;30.20;;;14.73;;
47635;SDS011;33364;50.766;15.338;2023-11-22T07:39:04;29.83;;;15.10;;
47635;SDS011;33364;50.766;15.338;2023-11-22T07:41:30;33.13;;;15.48;;
47635;SDS011;33364;50.766;15.338;2023-11-22T07:43:56;28.85;;;14.52;;
47635;SDS011;33364;50.766;15.338;2023-11-22T07:46:23;27.83;;;13.68;;
47635;SDS011;33364;50.766;15.338;2023-11-22T07:48:48;28.40;;;15.05;;
47635;SDS011;33364;50.766;15.338;2023-11-22T07:51:15;28.02;;;14.00;;
47635;SDS011;33364;50.766;15.338;2023-11-22T07:53:43;28.77;;;14.43;;
47635;SDS011;33364;50.766;15.338;2023-11-22T07:56:10;28.70;;;14.77;;
47635;SDS011;33364;50.766;15.338;2023-11-22T07:58:37;31.15;;;14.63;;
47635;SDS011;33364;50.766;15.338;2023-11-22T08:01:03;29.92;;;13.73;;
47635;SDS011;33364;50.766;15.338;2023-11-22T08:03:30;27.45;;;13.63;;
47635;SDS011;33364;50.766;15.338;2023-11-22T08:05:56;32.63;;;14.88;;
47635;SDS011;33364;50.766;15.338;2023-11-22T08:08:22;30.20;;;14.55;;
47635;SDS011;33364;50.766;15.338;2023-11-22T08:10:49;27.27;;;13.75;;
47635;SDS011;33364;50.766;15.338;2023-11-22T08:13:18;27.90;;;14.20;;
47635;SDS011;33364;50.766;15.338;2023-11-22T08:15:45;29.33;;;15.13;;
47635;SDS011;33364;50.766;15.338;2023-11-22T08:18:14;23.50;;;11.90;;
47635;SDS011;33364;50.766;15.338;2023-11-22T08:20:42;26.95;;;13.30;;
47635;SDS011;33364;50.766;15.338;2023-11-22T08:23:08;29.08;;;14.48;;
47635;SDS011;33364;50.766;15.338;2023-11-22T08:25:36;30.17;;;14.45;;
47635;SDS011;33364;50.766;15.338;2023-11-22T08:28:03;35.17;;;16.25;;
47635;SDS011;33364;50.766;15.338;2023-11-22T08:30:30;30.73;;;14.68;;
47635;SDS011;33364;50.766;15.338;2023-11-22T08:32:58;32.78;;;14.98;;
47635;SDS011;33364;50.766;15.338;2023-11-22T08:35:24;34.33;;;17.55;;
47635;SDS011;33364;50.766;15.338;2023-11-22T08:37:49;29.33;;;16.23;;
47635;SDS011;33364;50.766;15.338;2023-11-22T08:40:16;32.15;;;15.00;;
47635;SDS011;33364;50.766;15.338;2023-11-22T08:42:48;26.92;;;12.88;;
47635;SDS011;33364;50.766;15.338;2023-11-22T08:45:14;31.33;;;13.27;;
47635;SDS011;33364;50.766;15.338;2023-11-22T08:47:40;32.47;;;15.40;;
47635;SDS011;33364;50.766;15.338;2023-11-22T08:50:09;31.27;;;15.02;;
47635;SDS011;33364;50.766;15.338;2023-11-22T08:52:38;28.95;;;13.02;;
47635;SDS011;33364;50.766;15.338;2023-11-22T08:55:08;27.58;;;12.50;;
47635;SDS011;33364;50.766;15.338;2023-11-22T08:57:37;27.83;;;14.07;;
47635;SDS011;33364;50.766;15.338;2023-11-22T09:00:03;26.52;;;12.57;;
47635;SDS011;33364;50.766;15.338;2023-11-22T09:02:37;26.30;;;12.65;;
47635;SDS011;33364;50.766;15.338;2023-11-22T09:05:04;24.98;;;12.68;;
47635;SDS011;33364;50.766;15.338;2023-11-22T09:07:33;22.58;;;11.48;;
47635;SDS011;33364;50.766;15.338;2023-11-22T09:10:02;28.23;;;12.65;;
47635;SDS011;33364;50.766;15.338;2023-11-22T09:12:37;24.45;;;12.40;;
47635;SDS011;33364;50.766;15.338;2023-11-22T09:15:07;25.58;;;13.65;;
47635;SDS011;33364;50.766;15.338;2023-11-22T09:17:38;21.45;;;11.75;;
47635;SDS011;33364;50.766;15.338;2023-11-22T09:20:09;27.83;;;13.88;;
47635;SDS011;33364;50.766;15.338;2023-11-22T09:22:42;28.23;;;12.82;;
47635;SDS011;33364;50.766;15.338;2023-11-22T09:27:46;29.33;;;13.82;;
47635;SDS011;33364;50.766;15.338;2023-11-22T09:30:14;27.02;;;12.95;;
47635;SDS011;33364;50.766;15.338;2023-11-22T09:32:57;25.63;;;13.23;;
47635;SDS011;33364;50.766;15.338;2023-11-22T09:35:27;26.75;;;13.50;;
47635;SDS011;33364;50.766;15.338;2023-11-22T09:37:55;26.05;;;13.05;;
47635;SDS011;33364;50.766;15.338;2023-11-22T09:40:21;29.00;;;13.75;;
47635;SDS011;33364;50.766;15.338;2023-11-22T09:42:48;26.88;;;13.38;;
47635;SDS011;33364;50.766;15.338;2023-11-22T09:45:17;25.70;;;12.55;;
47635;SDS011;33364;50.766;15.338;2023-11-22T09:47:46;25.45;;;13.95;;
47635;SDS011;33364;50.766;15.338;2023-11-22T09:50:14;26.50;;;12.95;;
47635;SDS011;33364;50.766;15.338;2023-11-22T09:52:46;23.65;;;12.73;;
47635;SDS011;33364;50.766;15.338;2023-11-22T09:55:17;24.52;;;10.50;;
47635;SDS011;33364;50.766;15.338;2023-11-22T09:57:45;24.33;;;13.45;;
47635;SDS011;33364;50.766;15.338;2023-11-22T10:00:12;23.80;;;12.95;;
47635;SDS011;33364;50.766;15.338;2023-11-22T10:02:42;23.02;;;11.75;;
47635;SDS011;33364;50.766;15.338;2023-11-22T10:05:08;23.90;;;12.63;;
47635;SDS011;33364;50.766;15.338;2023-11-22T10:07:34;27.95;;;13.25;;
47635;SDS011;33364;50.766;15.338;2023-11-22T10:10:02;23.45;;;11.55;;
47635;SDS011;33364;50.766;15.338;2023-11-22T10:12:32;21.65;;;12.20;;
47635;SDS011;33364;50.766;15.338;2023-11-22T10:15:15;22.23;;;12.30;;
47635;SDS011;33364;50.766;15.338;2023-11-22T10:17:53;22.02;;;10.88;;
47635;SDS011;33364;50.766;15.338;2023-11-22T10:20:41;21.60;;;12.82;;
47635;SDS011;33364;50.766;15.338;2023-11-22T10:23:12;16.97;;;8.43;;
47635;SDS011;33364;50.766;15.338;2023-11-22T10:25:45;19.25;;;11.18;;
47635;SDS011;33364;50.766;15.338;2023-11-22T10:28:20;19.80;;;11.53;;
47635;SDS011;33364;50.766;15.338;2023-11-22T10:30:47;22.67;;;11.15;;
47635;SDS011;33364;50.766;15.338;2023-11-22T10:33:15;23.65;;;11.82;;
47635;SDS011;33364;50.766;15.338;2023-11-22T10:35:48;21.33;;;10.80;;
47635;SDS011;33364;50.766;15.338;2023-11-22T10:38:18;21.70;;;11.50;;
47635;SDS011;33364;50.766;15.338;2023-11-22T10:40:45;20.75;;;10.73;;
47635;SDS011;33364;50.766;15.338;2023-11-22T10:43:11;21.45;;;11.40;;
47635;SDS011;33364;50.766;15.338;2023-11-22T10:45:38;22.20;;;11.27;;
47635;SDS011;33364;50.766;15.338;2023-11-22T10:48:05;19.40;;;10.32;;
47635;SDS011;33364;50.766;15.338;2023-11-22T10:50:34;21.50;;;10.52;;
47635;SDS011;33364;50.766;15.338;2023-11-22T10:53:03;22.23;;;11.57;;
47635;SDS011;33364;50.766;15.338;2023-11-22T10:55:32;20.63;;;10.70;;
47635;SDS011;33364;50.766;15.338;2023-11-22T10:58:01;20.92;;;10.75;;
47635;SDS011;33364;50.766;15.338;2023-11-22T11:00:31;19.88;;;9.95;;
47635;SDS011;33364;50.766;15.338;2023-11-22T11:02:59;17.45;;;9.90;;
47635;SDS011;33364;50.766;15.338;2023-11-22T11:05:30;18.70;;;9.05;;
47635;SDS011;33364;50.766;15.338;2023-11-22T11:10:43;17.55;;;9.50;;
47635;SDS011;33364;50.766;15.338;2023-11-22T11:13:12;17.75;;;10.65;;
47635;SDS011;33364;50.766;15.338;2023-11-22T11:15:39;16.48;;;9.10;;
47635;SDS011;33364;50.766;15.338;2023-11-22T11:18:09;17.58;;;9.45;;
47635;SDS011;33364;50.766;15.338;2023-11-22T11:20:51;15.63;;;8.73;;
47635;SDS011;33364;50.766;15.338;2023-11-22T11:23:21;16.20;;;8.85;;
47635;SDS011;33364;50.766;15.338;2023-11-22T11:25:50;18.60;;;9.70;;
47635;SDS011;33364;50.766;15.338;2023-11-22T11:28:19;17.17;;;9.23;;
47635;SDS011;33364;50.766;15.338;2023-11-22T11:33:15;18.95;;;11.73;;
47635;SDS011;33364;50.766;15.338;2023-11-22T11:35:50;16.17;;;8.95;;
47635;SDS011;33364;50.766;15.338;2023-11-22T11:38:16;16.55;;;9.27;;
47635;SDS011;33364;50.766;15.338;2023-11-22T11:40:46;17.88;;;9.35;;
47635;SDS011;33364;50.766;15.338;2023-11-22T11:43:14;16.38;;;9.32;;
47635;SDS011;33364;50.766;15.338;2023-11-22T11:45:41;16.83;;;9.50;;
47635;SDS011;33364;50.766;15.338;2023-11-22T11:48:15;17.15;;;9.63;;
47635;SDS011;33364;50.766;15.338;2023-11-22T11:50:42;16.73;;;9.65;;
47635;SDS011;33364;50.766;15.338;2023-11-22T11:53:09;15.57;;;8.65;;
47635;SDS011;33364;50.766;15.338;2023-11-22T11:55:36;16.50;;;9.02;;
47635;SDS011;33364;50.766;15.338;2023-11-22T11:58:05;16.00;;;8.40;;
47635;SDS011;33364;50.766;15.338;2023-11-22T12:00:35;18.58;;;9.13;;
47635;SDS011;33364;50.766;15.338;2023-11-22T12:03:08;13.45;;;8.43;;
47635;SDS011;33364;50.766;15.338;2023-11-22T12:05:38;15.13;;;8.90;;
47635;SDS011;33364;50.766;15.338;2023-11-22T12:08:04;17.58;;;9.43;;
47635;SDS011;33364;50.766;15.338;2023-11-22T12:10:30;17.63;;;9.52;;
47635;SDS011;33364;50.766;15.338;2023-11-22T12:12:56;17.17;;;9.65;;
47635;SDS011;33364;50.766;15.338;2023-11-22T12:15:24;16.48;;;8.93;;
47635;SDS011;33364;50.766;15.338;2023-11-22T12:17:50;19.63;;;10.93;;
47635;SDS011;33364;50.766;15.338;2023-11-22T12:20:17;22.40;;;11.65;;
47635;SDS011;33364;50.766;15.338;2023-11-22T12:22:43;38.95;;;18.52;;
47635;SDS011;33364;50.766;15.338;2023-11-22T12:25:10;50.88;;;22.05;;
47635;SDS011;33364;50.766;15.338;2023-11-22T12:27:41;62.30;;;27.15;;
47635;SDS011;33364;50.766;15.338;2023-11-22T12:30:08;24.27;;;12.85;;
47635;SDS011;33364;50.766;15.338;2023-11-22T12:32:39;22.10;;;12.23;;
47635;SDS011;33364;50.766;15.338;2023-11-22T12:35:06;21.38;;;10.90;;
47635;SDS011;33364;50.766;15.338;2023-11-22T12:37:33;18.52;;;11.02;;
47635;SDS011;33364;50.766;15.338;2023-11-22T12:40:06;16.65;;;10.40;;
47635;SDS011;33364;50.766;15.338;2023-11-22T12:42:46;17.92;;;10.35;;
47635;SDS011;33364;50.766;15.338;2023-11-22T12:45:20;18.13;;;9.68;;
47635;SDS011;33364;50.766;15.338;2023-11-22T12:47:49;20.10;;;10.23;;
47635;SDS011;33364;50.766;15.338;2023-11-22T12:50:35;17.90;;;9.73;;
47635;SDS011;33364;50.766;15.338;2023-11-22T12:53:12;19.83;;;9.95;;
47635;SDS011;33364;50.766;15.338;2023-11-22T12:55:42;31.52;;;16.15;;
47635;SDS011;33364;50.766;15.338;2023-11-22T12:58:11;19.70;;;11.07;;
47635;SDS011;33364;50.766;15.338;2023-11-22T13:00:38;19.88;;;10.93;;
47635;SDS011;33364;50.766;15.338;2023-11-22T13:03:07;22.98;;;12.20;;
47635;SDS011;33364;50.766;15.338;2023-11-22T13:05:39;25.05;;;12.30;;
47635;SDS011;33364;50.766;15.338;2023-11-22T13:08:08;23.30;;;13.60;;
47635;SDS011;33364;50.766;15.338;2023-11-22T13:10:48;22.75;;;13.50;;
47635;SDS011;33364;50.766;15.338;2023-11-22T13:13:24;23.20;;;13.82;;
47635;SDS011;33364;50.766;15.338;2023-11-22T13:15:51;30.67;;;15.63;;
47635;SDS011;33364;50.766;15.338;2023-11-22T13:18:17;30.27;;;14.23;;
47635;SDS011;33364;50.766;15.338;2023-11-22T13:20:44;33.63;;;18.38;;
47635;SDS011;33364;50.766;15.338;2023-11-22T13:23:10;25.20;;;14.82;;
47635;SDS011;33364;50.766;15.338;2023-11-22T13:25:37;29.45;;;16.35;;
47635;SDS011;33364;50.766;15.338;2023-11-22T13:28:03;86.28;;;37.60;;
47635;SDS011;33364;50.766;15.338;2023-11-22T13:30:30;32.08;;;17.05;;
47635;SDS011;33364;50.766;15.338;2023-11-22T13:32:56;33.13;;;16.83;;
47635;SDS011;33364;50.766;15.338;2023-11-22T13:35:26;40.42;;;19.13;;
47635;SDS011;33364;50.766;15.338;2023-11-22T13:38:02;43.92;;;20.45;;
47635;SDS011;33364;50.766;15.338;2023-11-22T13:40:28;37.17;;;18.33;;
47635;SDS011;33364;50.766;15.338;2023-11-22T13:42:57;30.60;;;16.02;;
47635;SDS011;33364;50.766;15.338;2023-11-22T13:45:24;31.20;;;15.68;;
47635;SDS011;33364;50.766;15.338;2023-11-22T13:47:53;34.67;;;19.20;;
47635;SDS011;33364;50.766;15.338;2023-11-22T13:50:24;34.95;;;18.65;;
47635;SDS011;33364;50.766;15.338;2023-11-22T13:52:53;102.25;;;62.40;;
47635;SDS011;33364;50.766;15.338;2023-11-22T13:55:20;35.60;;;20.20;;
47635;SDS011;33364;50.766;15.338;2023-11-22T13:57:49;30.27;;;16.48;;
47635;SDS011;33364;50.766;15.338;2023-11-22T14:00:16;25.08;;;13.38;;
47635;SDS011;33364;50.766;15.338;2023-11-22T14:02:51;60.13;;;27.63;;
47635;SDS011;33364;50.766;15.338;2023-11-22T14:05:24;24.75;;;13.60;;
47635;SDS011;33364;50.766;15.338;2023-11-22T14:07:52;22.88;;;12.80;;
47635;SDS011;33364;50.766;15.338;2023-11-22T14:10:18;28.60;;;14.57;;
47635;SDS011;33364;50.766;15.338;2023-11-22T14:12:44;28.77;;;15.13;;
47635;SDS011;33364;50.766;15.338;2023-11-22T14:15:12;28.88;;;15.52;;
47635;SDS011;33364;50.766;15.338;2023-11-22T14:17:38;39.65;;;22.83;;
47635;SDS011;33364;50.766;15.338;2023-11-22T14:20:07;41.60;;;23.00;;
47635;SDS011;33364;50.766;15.338;2023-11-22T14:22:36;36.72;;;19.17;;
47635;SDS011;33364;50.766;15.338;2023-11-22T14:25:04;42.15;;;20.85;;
47635;SDS011;33364;50.766;15.338;2023-11-22T14:27:39;39.05;;;19.55;;